sensor_id;sensor_type;location;lat;lon;timestamp;P1;durP1;ratioP1;P2;durP2;ratioP2
8327;SDS011;4201;48.754;8.864;2023-04-24T00:00:07;2.73;;;1.47;;
8327;SDS011;4201;48.754;8.864;2023-04-24T00:02:34;4.27;;;2.40;;
8327;SDS011;4201;48.754;8.864;2023-04-24T00:05:02;5.10;;;1.50;;
8327;SDS011;4201;48.754;8.864;2023-04-24T00:07:30;3.20;;;1.30;;
8327;SDS011;4201;48.754;8.864;2023-04-24T00:09:57;3.10;;;1.30;;
8327;SDS011;4201;48.754;8.864;2023-04-24T00:12:23;7.70;;;2.07;;
8327;SDS011;4201;48.754;8.864;2023-04-24T00:14:49;2.43;;;1.37;;
8327;SDS011;4201;48.754;8.864;2023-04-24T00:17:16;4.93;;;1.50;;
8327;SDS011;4201;48.754;8.864;2023-04-24T00:19:44;4.37;;;1.37;;
8327;SDS011;4201;48.754;8.864;2023-04-24T00:22:11;3.00;;;1.40;;
8327;SDS011;4201;48.754;8.864;2023-04-24T00:24:39;5.37;;;1.60;;
8327;SDS011;4201;48.754;8.864;2023-04-24T00:27:05;2.60;;;1.10;;
8327;SDS011;4201;48.754;8.864;2023-04-24T00:29:32;3.77;;;1.40;;
8327;SDS011;4201;48.754;8.864;2023-04-24T00:31:58;2.97;;;1.20;;
8327;SDS011;4201;48.754;8.864;2023-04-24T00:34:24;2.47;;;1.00;;
8327;SDS011;4201;48.754;8.864;2023-04-24T00:36:50;6.20;;;1.30;;
8327;SDS011;4201;48.754;8.864;2023-04-24T00:39:17;2.20;;;1.17;;
8327;SDS011;4201;48.754;8.864;2023-04-24T00:41:44;6.77;;;1.63;;
8327;SDS011;4201;48.754;8.864;2023-04-24T00:44:11;3.20;;;1.20;;
8327;SDS011;4201;48.754;8.864;2023-04-24T00:46:37;3.87;;;1.30;;
8327;SDS011;4201;48.754;8.864;2023-04-24T00:49:04;5.37;;;1.20;;
8327;SDS011;4201;48.754;8.864;2023-04-24T00:51:30;3.17;;;1.67;;
8327;SDS011;4201;48.754;8.864;2023-04-24T00:53:57;3.23;;;1.00;;
8327;SDS011;4201;48.754;8.864;2023-04-24T00:56:24;3.50;;;1.57;;
8327;SDS011;4201;48.754;8.864;2023-04-24T00:58:51;2.43;;;1.10;;
8327;SDS011;4201;48.754;8.864;2023-04-24T01:01:18;2.17;;;1.00;;
8327;SDS011;4201;48.754;8.864;2023-04-24T01:03:45;2.77;;;1.40;;
8327;SDS011;4201;48.754;8.864;2023-04-24T01:06:12;6.23;;;2.63;;
8327;SDS011;4201;48.754;8.864;2023-04-24T01:08:38;6.17;;;2.13;;
8327;SDS011;4201;48.754;8.864;2023-04-24T01:11:05;3.10;;;1.77;;
8327;SDS011;4201;48.754;8.864;2023-04-24T01:13:32;3.00;;;1.50;;
8327;SDS011;4201;48.754;8.864;2023-04-24T01:16:00;2.90;;;1.23;;
8327;SDS011;4201;48.754;8.864;2023-04-24T01:18:26;2.27;;;1.20;;
8327;SDS011;4201;48.754;8.864;2023-04-24T01:20:53;4.13;;;1.50;;
8327;SDS011;4201;48.754;8.864;2023-04-24T01:23:21;2.70;;;1.17;;
8327;SDS011;4201;48.754;8.864;2023-04-24T01:25:47;3.47;;;1.23;;
8327;SDS011;4201;48.754;8.864;2023-04-24T01:28:14;4.83;;;1.50;;
8327;SDS011;4201;48.754;8.864;2023-04-24T01:30:40;2.67;;;1.30;;
8327;SDS011;4201;48.754;8.864;2023-04-24T01:33:07;2.60;;;1.30;;
8327;SDS011;4201;48.754;8.864;2023-04-24T01:35:33;3.20;;;1.77;;
8327;SDS011;4201;48.754;8.864;2023-04-24T01:38:01;4.60;;;1.23;;
8327;SDS011;4201;48.754;8.864;2023-04-24T01:40:28;2.37;;;1.30;;
8327;SDS011;4201;48.754;8.864;2023-04-24T01:42:54;2.90;;;1.30;;
8327;SDS011;4201;48.754;8.864;2023-04-24T01:45:21;4.40;;;1.80;;
8327;SDS011;4201;48.754;8.864;2023-04-24T01:47:47;2.93;;;1.47;;
8327;SDS011;4201;48.754;8.864;2023-04-24T01:50:14;4.40;;;1.90;;
8327;SDS011;4201;48.754;8.864;2023-04-24T01:52:40;3.80;;;1.30;;
8327;SDS011;4201;48.754;8.864;2023-04-24T01:55:07;4.27;;;1.40;;
8327;SDS011;4201;48.754;8.864;2023-04-24T01:57:34;3.77;;;1.53;;
8327;SDS011;4201;48.754;8.864;2023-04-24T02:00:01;4.70;;;1.20;;
8327;SDS011;4201;48.754;8.864;2023-04-24T02:02:29;3.17;;;1.50;;
8327;SDS011;4201;48.754;8.864;2023-04-24T02:04:55;4.07;;;1.60;;
8327;SDS011;4201;48.754;8.864;2023-04-24T02:07:21;2.00;;;1.17;;
8327;SDS011;4201;48.754;8.864;2023-04-24T02:09:48;3.83;;;1.33;;
8327;SDS011;4201;48.754;8.864;2023-04-24T02:12:14;5.07;;;1.27;;
8327;SDS011;4201;48.754;8.864;2023-04-24T02:14:43;2.60;;;1.30;;
8327;SDS011;4201;48.754;8.864;2023-04-24T02:17:09;4.83;;;1.20;;
8327;SDS011;4201;48.754;8.864;2023-04-24T02:19:38;5.17;;;1.67;;
8327;SDS011;4201;48.754;8.864;2023-04-24T02:22:04;2.83;;;1.23;;
8327;SDS011;4201;48.754;8.864;2023-04-24T02:24:30;2.97;;;1.50;;
8327;SDS011;4201;48.754;8.864;2023-04-24T02:26:56;6.13;;;1.53;;
8327;SDS011;4201;48.754;8.864;2023-04-24T02:29:23;3.73;;;1.53;;
8327;SDS011;4201;48.754;8.864;2023-04-24T02:31:50;4.60;;;1.97;;
8327;SDS011;4201;48.754;8.864;2023-04-24T02:34:17;3.83;;;1.80;;
8327;SDS011;4201;48.754;8.864;2023-04-24T02:36:43;3.90;;;2.00;;
8327;SDS011;4201;48.754;8.864;2023-04-24T02:39:09;5.00;;;1.90;;
8327;SDS011;4201;48.754;8.864;2023-04-24T02:41:35;4.53;;;1.60;;
8327;SDS011;4201;48.754;8.864;2023-04-24T02:44:02;5.20;;;1.60;;
8327;SDS011;4201;48.754;8.864;2023-04-24T02:46:28;6.40;;;2.00;;
8327;SDS011;4201;48.754;8.864;2023-04-24T02:48:56;4.60;;;1.47;;
8327;SDS011;4201;48.754;8.864;2023-04-24T02:51:22;3.50;;;1.43;;
8327;SDS011;4201;48.754;8.864;2023-04-24T02:53:48;3.50;;;1.23;;
8327;SDS011;4201;48.754;8.864;2023-04-24T02:56:14;2.37;;;1.10;;
8327;SDS011;4201;48.754;8.864;2023-04-24T02:58:41;3.03;;;1.30;;
8327;SDS011;4201;48.754;8.864;2023-04-24T03:01:07;3.43;;;1.50;;
8327;SDS011;4201;48.754;8.864;2023-04-24T03:03:34;3.07;;;1.80;;
8327;SDS011;4201;48.754;8.864;2023-04-24T03:06:02;4.10;;;1.50;;
8327;SDS011;4201;48.754;8.864;2023-04-24T03:08:30;4.80;;;1.30;;
8327;SDS011;4201;48.754;8.864;2023-04-24T03:10:57;3.07;;;1.80;;
8327;SDS011;4201;48.754;8.864;2023-04-24T03:13:23;4.63;;;1.77;;
8327;SDS011;4201;48.754;8.864;2023-04-24T03:15:49;5.37;;;1.70;;
8327;SDS011;4201;48.754;8.864;2023-04-24T03:18:15;5.00;;;1.67;;
8327;SDS011;4201;48.754;8.864;2023-04-24T03:20:42;3.40;;;1.73;;
8327;SDS011;4201;48.754;8.864;2023-04-24T03:23:09;2.27;;;1.23;;
8327;SDS011;4201;48.754;8.864;2023-04-24T03:25:35;4.70;;;2.03;;
8327;SDS011;4201;48.754;8.864;2023-04-24T03:28:02;3.90;;;2.47;;
8327;SDS011;4201;48.754;8.864;2023-04-24T03:30:28;3.17;;;1.40;;
8327;SDS011;4201;48.754;8.864;2023-04-24T03:32:54;3.27;;;1.33;;
8327;SDS011;4201;48.754;8.864;2023-04-24T03:35:20;2.23;;;1.23;;
8327;SDS011;4201;48.754;8.864;2023-04-24T03:37:47;3.40;;;1.93;;
8327;SDS011;4201;48.754;8.864;2023-04-24T03:40:14;2.27;;;1.37;;
8327;SDS011;4201;48.754;8.864;2023-04-24T03:42:41;2.53;;;1.30;;
8327;SDS011;4201;48.754;8.864;2023-04-24T03:45:08;2.97;;;1.70;;
8327;SDS011;4201;48.754;8.864;2023-04-24T03:47:34;4.20;;;1.53;;
8327;SDS011;4201;48.754;8.864;2023-04-24T03:50:01;3.27;;;1.50;;
8327;SDS011;4201;48.754;8.864;2023-04-24T03:52:27;3.10;;;1.60;;
8327;SDS011;4201;48.754;8.864;2023-04-24T03:54:53;3.57;;;1.40;;
8327;SDS011;4201;48.754;8.864;2023-04-24T03:57:21;3.80;;;1.70;;
8327;SDS011;4201;48.754;8.864;2023-04-24T03:59:47;3.30;;;1.90;;
8327;SDS011;4201;48.754;8.864;2023-04-24T04:02:14;3.30;;;1.63;;
8327;SDS011;4201;48.754;8.864;2023-04-24T04:04:40;5.10;;;2.00;;
8327;SDS011;4201;48.754;8.864;2023-04-24T04:07:06;3.10;;;1.50;;
8327;SDS011;4201;48.754;8.864;2023-04-24T04:09:33;3.03;;;1.67;;
8327;SDS011;4201;48.754;8.864;2023-04-24T04:11:59;3.20;;;1.70;;
8327;SDS011;4201;48.754;8.864;2023-04-24T04:14:27;5.40;;;1.80;;
8327;SDS011;4201;48.754;8.864;2023-04-24T04:16:54;3.27;;;1.50;;
8327;SDS011;4201;48.754;8.864;2023-04-24T04:19:20;3.10;;;2.10;;
8327;SDS011;4201;48.754;8.864;2023-04-24T04:21:47;3.17;;;2.00;;
8327;SDS011;4201;48.754;8.864;2023-04-24T04:24:17;3.13;;;2.03;;
8327;SDS011;4201;48.754;8.864;2023-04-24T04:26:43;2.80;;;1.73;;
8327;SDS011;4201;48.754;8.864;2023-04-24T04:29:12;3.47;;;1.90;;
8327;SDS011;4201;48.754;8.864;2023-04-24T04:31:39;3.83;;;1.80;;
8327;SDS011;4201;48.754;8.864;2023-04-24T04:34:05;2.80;;;1.57;;
8327;SDS011;4201;48.754;8.864;2023-04-24T04:36:32;3.13;;;2.00;;
8327;SDS011;4201;48.754;8.864;2023-04-24T04:39:01;9.63;;;2.10;;
8327;SDS011;4201;48.754;8.864;2023-04-24T04:41:28;4.13;;;1.80;;
8327;SDS011;4201;48.754;8.864;2023-04-24T04:43:55;4.50;;;2.30;;
8327;SDS011;4201;48.754;8.864;2023-04-24T04:46:23;4.00;;;2.07;;
8327;SDS011;4201;48.754;8.864;2023-04-24T04:48:52;2.80;;;1.93;;
8327;SDS011;4201;48.754;8.864;2023-04-24T04:51:19;3.47;;;1.87;;
8327;SDS011;4201;48.754;8.864;2023-04-24T04:53:45;2.77;;;1.60;;
8327;SDS011;4201;48.754;8.864;2023-04-24T04:56:12;4.10;;;2.03;;
8327;SDS011;4201;48.754;8.864;2023-04-24T04:58:38;4.03;;;2.07;;
8327;SDS011;4201;48.754;8.864;2023-04-24T05:01:04;3.50;;;1.87;;
8327;SDS011;4201;48.754;8.864;2023-04-24T05:03:31;2.43;;;1.80;;
8327;SDS011;4201;48.754;8.864;2023-04-24T05:05:59;6.20;;;1.70;;
8327;SDS011;4201;48.754;8.864;2023-04-24T05:08:25;6.23;;;1.67;;
8327;SDS011;4201;48.754;8.864;2023-04-24T05:10:51;2.90;;;1.80;;
8327;SDS011;4201;48.754;8.864;2023-04-24T05:13:18;4.53;;;2.23;;
8327;SDS011;4201;48.754;8.864;2023-04-24T05:15:44;4.77;;;2.40;;
8327;SDS011;4201;48.754;8.864;2023-04-24T05:18:10;4.90;;;2.07;;
8327;SDS011;4201;48.754;8.864;2023-04-24T05:20:36;5.70;;;2.63;;
8327;SDS011;4201;48.754;8.864;2023-04-24T05:23:04;3.73;;;1.90;;
8327;SDS011;4201;48.754;8.864;2023-04-24T05:25:30;3.27;;;2.40;;
8327;SDS011;4201;48.754;8.864;2023-04-24T05:28:00;4.00;;;2.20;;
8327;SDS011;4201;48.754;8.864;2023-04-24T05:30:26;3.50;;;2.30;;
8327;SDS011;4201;48.754;8.864;2023-04-24T05:32:52;2.97;;;2.23;;
8327;SDS011;4201;48.754;8.864;2023-04-24T05:35:18;3.90;;;2.17;;
8327;SDS011;4201;48.754;8.864;2023-04-24T05:37:45;3.20;;;2.27;;
8327;SDS011;4201;48.754;8.864;2023-04-24T05:40:12;3.00;;;2.00;;
8327;SDS011;4201;48.754;8.864;2023-04-24T05:42:39;2.70;;;1.90;;
8327;SDS011;4201;48.754;8.864;2023-04-24T05:45:05;2.87;;;1.77;;
8327;SDS011;4201;48.754;8.864;2023-04-24T05:47:32;4.30;;;2.50;;
8327;SDS011;4201;48.754;8.864;2023-04-24T05:49:58;4.70;;;2.07;;
8327;SDS011;4201;48.754;8.864;2023-04-24T05:52:24;3.37;;;1.80;;
8327;SDS011;4201;48.754;8.864;2023-04-24T05:54:50;6.83;;;2.63;;
8327;SDS011;4201;48.754;8.864;2023-04-24T05:57:18;4.07;;;2.60;;
8327;SDS011;4201;48.754;8.864;2023-04-24T05:59:44;3.40;;;2.20;;
8327;SDS011;4201;48.754;8.864;2023-04-24T06:02:11;5.23;;;1.93;;
8327;SDS011;4201;48.754;8.864;2023-04-24T06:04:37;8.07;;;2.53;;
8327;SDS011;4201;48.754;8.864;2023-04-24T06:07:03;11.00;;;2.47;;
8327;SDS011;4201;48.754;8.864;2023-04-24T06:09:30;4.67;;;2.40;;
8327;SDS011;4201;48.754;8.864;2023-04-24T06:11:56;5.60;;;1.90;;
8327;SDS011;4201;48.754;8.864;2023-04-24T06:14:24;3.37;;;2.17;;
8327;SDS011;4201;48.754;8.864;2023-04-24T06:16:50;2.87;;;2.00;;
8327;SDS011;4201;48.754;8.864;2023-04-24T06:19:17;4.70;;;2.30;;
8327;SDS011;4201;48.754;8.864;2023-04-24T06:21:43;3.97;;;2.13;;
8327;SDS011;4201;48.754;8.864;2023-04-24T06:24:09;4.27;;;2.43;;
8327;SDS011;4201;48.754;8.864;2023-04-24T06:26:35;5.63;;;2.20;;
8327;SDS011;4201;48.754;8.864;2023-04-24T06:29:02;3.70;;;2.30;;
8327;SDS011;4201;48.754;8.864;2023-04-24T06:31:29;3.83;;;2.27;;
8327;SDS011;4201;48.754;8.864;2023-04-24T06:34:00;5.57;;;2.70;;
8327;SDS011;4201;48.754;8.864;2023-04-24T06:36:26;5.43;;;2.50;;
8327;SDS011;4201;48.754;8.864;2023-04-24T06:38:53;3.90;;;2.80;;
8327;SDS011;4201;48.754;8.864;2023-04-24T06:41:19;3.83;;;2.77;;
8327;SDS011;4201;48.754;8.864;2023-04-24T06:43:45;2.73;;;2.13;;
8327;SDS011;4201;48.754;8.864;2023-04-24T06:46:12;4.83;;;2.40;;
8327;SDS011;4201;48.754;8.864;2023-04-24T06:48:39;6.10;;;2.40;;
8327;SDS011;4201;48.754;8.864;2023-04-24T06:51:06;3.10;;;2.13;;
8327;SDS011;4201;48.754;8.864;2023-04-24T06:53:32;4.70;;;2.60;;
8327;SDS011;4201;48.754;8.864;2023-04-24T06:55:58;3.50;;;2.53;;
8327;SDS011;4201;48.754;8.864;2023-04-24T06:58:25;4.23;;;2.37;;
8327;SDS011;4201;48.754;8.864;2023-04-24T07:00:51;4.10;;;2.10;;
8327;SDS011;4201;48.754;8.864;2023-04-24T07:03:18;5.10;;;2.40;;
8327;SDS011;4201;48.754;8.864;2023-04-24T07:05:46;3.60;;;2.27;;
8327;SDS011;4201;48.754;8.864;2023-04-24T07:08:13;4.27;;;2.40;;
8327;SDS011;4201;48.754;8.864;2023-04-24T07:10:39;3.27;;;2.10;;
8327;SDS011;4201;48.754;8.864;2023-04-24T07:13:05;4.50;;;2.03;;
8327;SDS011;4201;48.754;8.864;2023-04-24T07:15:31;5.07;;;2.40;;
8327;SDS011;4201;48.754;8.864;2023-04-24T07:17:58;4.80;;;2.30;;
8327;SDS011;4201;48.754;8.864;2023-04-24T07:20:25;3.20;;;2.03;;
8327;SDS011;4201;48.754;8.864;2023-04-24T07:22:52;2.90;;;2.10;;
8327;SDS011;4201;48.754;8.864;2023-04-24T07:25:19;4.90;;;1.80;;
8327;SDS011;4201;48.754;8.864;2023-04-24T07:27:46;7.93;;;2.57;;
8327;SDS011;4201;48.754;8.864;2023-04-24T07:30:13;6.93;;;2.13;;
8327;SDS011;4201;48.754;8.864;2023-04-24T07:32:39;3.80;;;2.03;;
8327;SDS011;4201;48.754;8.864;2023-04-24T07:35:06;2.70;;;1.63;;
8327;SDS011;4201;48.754;8.864;2023-04-24T07:37:32;3.50;;;1.80;;
8327;SDS011;4201;48.754;8.864;2023-04-24T07:40:00;6.67;;;2.53;;
8327;SDS011;4201;48.754;8.864;2023-04-24T07:42:26;4.13;;;2.10;;
8327;SDS011;4201;48.754;8.864;2023-04-24T07:44:52;4.50;;;2.50;;
8327;SDS011;4201;48.754;8.864;2023-04-24T07:47:18;5.07;;;2.43;;
8327;SDS011;4201;48.754;8.864;2023-04-24T07:49:45;4.70;;;1.93;;
8327;SDS011;4201;48.754;8.864;2023-04-24T07:52:11;2.93;;;2.10;;
8327;SDS011;4201;48.754;8.864;2023-04-24T07:54:37;2.90;;;1.80;;
8327;SDS011;4201;48.754;8.864;2023-04-24T07:57:05;4.70;;;2.87;;
8327;SDS011;4201;48.754;8.864;2023-04-24T07:59:33;3.10;;;2.10;;
8327;SDS011;4201;48.754;8.864;2023-04-24T08:01:59;4.17;;;1.97;;
8327;SDS011;4201;48.754;8.864;2023-04-24T08:04:26;3.60;;;1.97;;
8327;SDS011;4201;48.754;8.864;2023-04-24T08:06:52;4.20;;;1.90;;
8327;SDS011;4201;48.754;8.864;2023-04-24T08:09:18;6.93;;;2.77;;
8327;SDS011;4201;48.754;8.864;2023-04-24T08:11:45;5.00;;;2.40;;
8327;SDS011;4201;48.754;8.864;2023-04-24T08:14:12;4.50;;;2.53;;
8327;SDS011;4201;48.754;8.864;2023-04-24T08:16:39;3.60;;;2.10;;
8327;SDS011;4201;48.754;8.864;2023-04-24T08:19:06;3.50;;;1.93;;
8327;SDS011;4201;48.754;8.864;2023-04-24T08:21:33;6.83;;;2.57;;
8327;SDS011;4201;48.754;8.864;2023-04-24T08:23:59;4.40;;;2.33;;
8327;SDS011;4201;48.754;8.864;2023-04-24T08:26:30;4.83;;;2.33;;
8327;SDS011;4201;48.754;8.864;2023-04-24T08:28:56;2.80;;;1.67;;
8327;SDS011;4201;48.754;8.864;2023-04-24T08:31:23;4.00;;;2.40;;
8327;SDS011;4201;48.754;8.864;2023-04-24T08:33:51;4.10;;;2.17;;
8327;SDS011;4201;48.754;8.864;2023-04-24T08:36:17;4.87;;;2.47;;
8327;SDS011;4201;48.754;8.864;2023-04-24T08:38:43;4.37;;;2.33;;
8327;SDS011;4201;48.754;8.864;2023-04-24T08:41:11;5.40;;;2.50;;
8327;SDS011;4201;48.754;8.864;2023-04-24T08:43:37;4.63;;;2.53;;
8327;SDS011;4201;48.754;8.864;2023-04-24T08:46:04;5.40;;;2.13;;
8327;SDS011;4201;48.754;8.864;2023-04-24T08:48:32;3.47;;;2.10;;
8327;SDS011;4201;48.754;8.864;2023-04-24T08:50:58;4.50;;;2.07;;
8327;SDS011;4201;48.754;8.864;2023-04-24T08:53:26;4.50;;;2.57;;
8327;SDS011;4201;48.754;8.864;2023-04-24T08:55:52;4.23;;;2.53;;
8327;SDS011;4201;48.754;8.864;2023-04-24T08:58:20;3.80;;;2.37;;
8327;SDS011;4201;48.754;8.864;2023-04-24T09:00:47;3.20;;;2.13;;
8327;SDS011;4201;48.754;8.864;2023-04-24T09:03:13;4.27;;;2.43;;
8327;SDS011;4201;48.754;8.864;2023-04-24T09:05:41;7.50;;;2.37;;
8327;SDS011;4201;48.754;8.864;2023-04-24T09:08:10;2.90;;;1.70;;
8327;SDS011;4201;48.754;8.864;2023-04-24T09:10:38;3.40;;;1.90;;
8327;SDS011;4201;48.754;8.864;2023-04-24T09:13:05;6.17;;;2.47;;
8327;SDS011;4201;48.754;8.864;2023-04-24T09:15:34;7.77;;;5.57;;
8327;SDS011;4201;48.754;8.864;2023-04-24T09:18:00;7.90;;;4.50;;
8327;SDS011;4201;48.754;8.864;2023-04-24T09:20:26;4.50;;;3.00;;
8327;SDS011;4201;48.754;8.864;2023-04-24T09:22:54;3.63;;;2.43;;
8327;SDS011;4201;48.754;8.864;2023-04-24T09:25:21;4.43;;;2.53;;
8327;SDS011;4201;48.754;8.864;2023-04-24T09:27:47;3.57;;;2.10;;
8327;SDS011;4201;48.754;8.864;2023-04-24T09:30:14;4.00;;;2.20;;
8327;SDS011;4201;48.754;8.864;2023-04-24T09:32:46;3.77;;;2.23;;
8327;SDS011;4201;48.754;8.864;2023-04-24T09:35:14;2.93;;;1.80;;
8327;SDS011;4201;48.754;8.864;2023-04-24T09:37:41;3.97;;;2.00;;
8327;SDS011;4201;48.754;8.864;2023-04-24T09:40:12;5.40;;;2.60;;
8327;SDS011;4201;48.754;8.864;2023-04-24T09:42:39;3.47;;;1.70;;
8327;SDS011;4201;48.754;8.864;2023-04-24T09:45:08;3.50;;;2.80;;
8327;SDS011;4201;48.754;8.864;2023-04-24T09:47:35;4.20;;;2.27;;
8327;SDS011;4201;48.754;8.864;2023-04-24T09:50:08;4.40;;;1.80;;
8327;SDS011;4201;48.754;8.864;2023-04-24T09:52:35;3.90;;;1.93;;
8327;SDS011;4201;48.754;8.864;2023-04-24T09:55:01;8.03;;;2.40;;
8327;SDS011;4201;48.754;8.864;2023-04-24T09:57:29;4.67;;;2.10;;
8327;SDS011;4201;48.754;8.864;2023-04-24T09:59:56;3.03;;;1.80;;
8327;SDS011;4201;48.754;8.864;2023-04-24T10:02:23;5.47;;;2.20;;
8327;SDS011;4201;48.754;8.864;2023-04-24T10:04:54;3.60;;;2.00;;
8327;SDS011;4201;48.754;8.864;2023-04-24T10:07:20;3.23;;;1.67;;
8327;SDS011;4201;48.754;8.864;2023-04-24T10:09:46;7.70;;;2.03;;
8327;SDS011;4201;48.754;8.864;2023-04-24T10:12:13;2.50;;;1.67;;
8327;SDS011;4201;48.754;8.864;2023-04-24T10:14:41;3.77;;;2.07;;
8327;SDS011;4201;48.754;8.864;2023-04-24T10:17:07;3.60;;;1.90;;
8327;SDS011;4201;48.754;8.864;2023-04-24T10:19:34;3.67;;;1.80;;
8327;SDS011;4201;48.754;8.864;2023-04-24T10:22:01;3.20;;;1.67;;
8327;SDS011;4201;48.754;8.864;2023-04-24T10:24:28;2.73;;;1.50;;
8327;SDS011;4201;48.754;8.864;2023-04-24T10:26:54;4.10;;;1.80;;
8327;SDS011;4201;48.754;8.864;2023-04-24T10:29:21;2.80;;;1.70;;
8327;SDS011;4201;48.754;8.864;2023-04-24T10:31:49;5.93;;;4.37;;
8327;SDS011;4201;48.754;8.864;2023-04-24T10:34:16;4.07;;;2.03;;
8327;SDS011;4201;48.754;8.864;2023-04-24T10:36:44;4.37;;;1.70;;
8327;SDS011;4201;48.754;8.864;2023-04-24T10:39:12;3.67;;;2.43;;
8327;SDS011;4201;48.754;8.864;2023-04-24T10:41:39;3.17;;;1.80;;
8327;SDS011;4201;48.754;8.864;2023-04-24T10:44:06;3.83;;;1.97;;
8327;SDS011;4201;48.754;8.864;2023-04-24T10:46:32;3.20;;;1.90;;
8327;SDS011;4201;48.754;8.864;2023-04-24T10:49:00;3.43;;;2.00;;
8327;SDS011;4201;48.754;8.864;2023-04-24T10:51:43;2.63;;;1.67;;
8327;SDS011;4201;48.754;8.864;2023-04-24T10:54:21;3.57;;;2.03;;
8327;SDS011;4201;48.754;8.864;2023-04-24T10:56:48;3.93;;;1.57;;
8327;SDS011;4201;48.754;8.864;2023-04-24T10:59:23;4.13;;;2.07;;
8327;SDS011;4201;48.754;8.864;2023-04-24T11:01:52;2.93;;;2.10;;
8327;SDS011;4201;48.754;8.864;2023-04-24T11:04:24;4.23;;;1.70;;
8327;SDS011;4201;48.754;8.864;2023-04-24T11:06:54;5.10;;;2.23;;
8327;SDS011;4201;48.754;8.864;2023-04-24T11:09:21;3.77;;;2.20;;
8327;SDS011;4201;48.754;8.864;2023-04-24T11:11:47;4.43;;;1.97;;
8327;SDS011;4201;48.754;8.864;2023-04-24T11:14:13;3.07;;;1.80;;
8327;SDS011;4201;48.754;8.864;2023-04-24T11:16:43;3.07;;;2.07;;
8327;SDS011;4201;48.754;8.864;2023-04-24T11:19:17;3.17;;;1.80;;
8327;SDS011;4201;48.754;8.864;2023-04-24T11:21:46;3.20;;;2.10;;
8327;SDS011;4201;48.754;8.864;2023-04-24T11:24:22;2.70;;;1.70;;
8327;SDS011;4201;48.754;8.864;2023-04-24T11:26:50;3.53;;;1.83;;
8327;SDS011;4201;48.754;8.864;2023-04-24T11:29:17;3.90;;;2.13;;
8327;SDS011;4201;48.754;8.864;2023-04-24T11:31:45;3.40;;;1.90;;
8327;SDS011;4201;48.754;8.864;2023-04-24T11:34:15;4.00;;;2.40;;
8327;SDS011;4201;48.754;8.864;2023-04-24T11:36:42;3.43;;;2.20;;
8327;SDS011;4201;48.754;8.864;2023-04-24T11:39:10;4.90;;;2.40;;
8327;SDS011;4201;48.754;8.864;2023-04-24T11:41:36;3.63;;;2.20;;
8327;SDS011;4201;48.754;8.864;2023-04-24T11:44:03;5.17;;;2.33;;
8327;SDS011;4201;48.754;8.864;2023-04-24T11:46:31;4.67;;;2.57;;
8327;SDS011;4201;48.754;8.864;2023-04-24T11:48:58;5.23;;;2.27;;
8327;SDS011;4201;48.754;8.864;2023-04-24T11:51:25;5.80;;;2.20;;
8327;SDS011;4201;48.754;8.864;2023-04-24T11:53:51;4.07;;;2.40;;
8327;SDS011;4201;48.754;8.864;2023-04-24T11:56:19;4.40;;;2.00;;
8327;SDS011;4201;48.754;8.864;2023-04-24T11:58:47;3.47;;;2.27;;
8327;SDS011;4201;48.754;8.864;2023-04-24T12:01:13;5.67;;;2.33;;
8327;SDS011;4201;48.754;8.864;2023-04-24T12:03:40;2.70;;;1.73;;
8327;SDS011;4201;48.754;8.864;2023-04-24T12:06:08;4.60;;;2.00;;
8327;SDS011;4201;48.754;8.864;2023-04-24T12:08:35;5.63;;;2.30;;
8327;SDS011;4201;48.754;8.864;2023-04-24T12:11:01;4.10;;;2.40;;
8327;SDS011;4201;48.754;8.864;2023-04-24T12:13:29;7.40;;;2.40;;
8327;SDS011;4201;48.754;8.864;2023-04-24T12:15:56;4.67;;;1.87;;
8327;SDS011;4201;48.754;8.864;2023-04-24T12:18:22;2.60;;;1.90;;
8327;SDS011;4201;48.754;8.864;2023-04-24T12:20:49;4.73;;;2.00;;
8327;SDS011;4201;48.754;8.864;2023-04-24T12:23:15;4.83;;;2.23;;
8327;SDS011;4201;48.754;8.864;2023-04-24T12:25:42;4.63;;;1.80;;
8327;SDS011;4201;48.754;8.864;2023-04-24T12:28:09;5.73;;;2.47;;
8327;SDS011;4201;48.754;8.864;2023-04-24T12:30:39;4.60;;;2.30;;
8327;SDS011;4201;48.754;8.864;2023-04-24T12:33:06;3.43;;;2.30;;
8327;SDS011;4201;48.754;8.864;2023-04-24T12:35:33;4.37;;;1.90;;
8327;SDS011;4201;48.754;8.864;2023-04-24T12:38:05;2.73;;;1.87;;
8327;SDS011;4201;48.754;8.864;2023-04-24T12:40:31;4.73;;;2.00;;
8327;SDS011;4201;48.754;8.864;2023-04-24T12:42:57;4.10;;;2.30;;
8327;SDS011;4201;48.754;8.864;2023-04-24T12:45:23;3.10;;;2.10;;
8327;SDS011;4201;48.754;8.864;2023-04-24T12:47:51;4.73;;;2.50;;
8327;SDS011;4201;48.754;8.864;2023-04-24T12:50:17;4.70;;;2.50;;
8327;SDS011;4201;48.754;8.864;2023-04-24T12:52:44;3.83;;;2.20;;
8327;SDS011;4201;48.754;8.864;2023-04-24T12:55:10;3.60;;;2.47;;
8327;SDS011;4201;48.754;8.864;2023-04-24T12:57:37;5.00;;;2.20;;
8327;SDS011;4201;48.754;8.864;2023-04-24T13:00:04;3.50;;;2.10;;
8327;SDS011;4201;48.754;8.864;2023-04-24T13:02:31;4.17;;;2.30;;
8327;SDS011;4201;48.754;8.864;2023-04-24T13:04:59;4.97;;;2.40;;
8327;SDS011;4201;48.754;8.864;2023-04-24T13:07:25;4.00;;;2.53;;
8327;SDS011;4201;48.754;8.864;2023-04-24T13:09:52;4.60;;;2.53;;
8327;SDS011;4201;48.754;8.864;2023-04-24T13:12:19;3.30;;;2.23;;
8327;SDS011;4201;48.754;8.864;2023-04-24T13:14:45;6.20;;;2.67;;
8327;SDS011;4201;48.754;8.864;2023-04-24T13:17:12;3.90;;;2.53;;
8327;SDS011;4201;48.754;8.864;2023-04-24T13:19:40;3.20;;;2.03;;
8327;SDS011;4201;48.754;8.864;2023-04-24T13:22:08;6.57;;;2.30;;
8327;SDS011;4201;48.754;8.864;2023-04-24T13:24:34;3.10;;;2.17;;
8327;SDS011;4201;48.754;8.864;2023-04-24T13:27:01;3.23;;;2.00;;
8327;SDS011;4201;48.754;8.864;2023-04-24T13:29:27;3.30;;;1.60;;
8327;SDS011;4201;48.754;8.864;2023-04-24T13:31:54;3.60;;;2.40;;
8327;SDS011;4201;48.754;8.864;2023-04-24T13:34:20;3.23;;;2.10;;
8327;SDS011;4201;48.754;8.864;2023-04-24T13:36:46;3.03;;;1.97;;
8327;SDS011;4201;48.754;8.864;2023-04-24T13:39:14;4.73;;;2.20;;
8327;SDS011;4201;48.754;8.864;2023-04-24T13:41:40;4.87;;;2.40;;
8327;SDS011;4201;48.754;8.864;2023-04-24T13:44:07;4.17;;;2.17;;
8327;SDS011;4201;48.754;8.864;2023-04-24T13:46:33;5.77;;;2.70;;
8327;SDS011;4201;48.754;8.864;2023-04-24T13:48:59;4.90;;;2.47;;
8327;SDS011;4201;48.754;8.864;2023-04-24T13:51:26;3.53;;;2.17;;
8327;SDS011;4201;48.754;8.864;2023-04-24T13:53:52;3.47;;;2.00;;
8327;SDS011;4201;48.754;8.864;2023-04-24T13:56:20;3.70;;;2.50;;
8327;SDS011;4201;48.754;8.864;2023-04-24T13:58:47;3.77;;;2.97;;
8327;SDS011;4201;48.754;8.864;2023-04-24T14:01:13;3.00;;;2.10;;
8327;SDS011;4201;48.754;8.864;2023-04-24T14:03:40;4.03;;;2.43;;
8327;SDS011;4201;48.754;8.864;2023-04-24T14:06:06;4.17;;;2.20;;
8327;SDS011;4201;48.754;8.864;2023-04-24T14:08:32;3.70;;;1.80;;
8327;SDS011;4201;48.754;8.864;2023-04-24T14:10:58;4.90;;;2.50;;
8327;SDS011;4201;48.754;8.864;2023-04-24T14:13:26;2.87;;;1.90;;
8327;SDS011;4201;48.754;8.864;2023-04-24T14:15:52;3.80;;;2.37;;
8327;SDS011;4201;48.754;8.864;2023-04-24T14:18:19;3.80;;;2.30;;
8327;SDS011;4201;48.754;8.864;2023-04-24T14:20:45;4.20;;;2.40;;
8327;SDS011;4201;48.754;8.864;2023-04-24T14:23:11;4.90;;;2.60;;
8327;SDS011;4201;48.754;8.864;2023-04-24T14:25:38;3.30;;;2.23;;
8327;SDS011;4201;48.754;8.864;2023-04-24T14:28:05;4.77;;;2.60;;
8327;SDS011;4201;48.754;8.864;2023-04-24T14:30:33;4.80;;;3.03;;
8327;SDS011;4201;48.754;8.864;2023-04-24T14:32:59;4.63;;;2.90;;
8327;SDS011;4201;48.754;8.864;2023-04-24T14:35:25;5.43;;;3.00;;
8327;SDS011;4201;48.754;8.864;2023-04-24T14:37:53;3.40;;;2.40;;
8327;SDS011;4201;48.754;8.864;2023-04-24T14:40:20;3.73;;;2.50;;
8327;SDS011;4201;48.754;8.864;2023-04-24T14:42:46;4.00;;;2.90;;
8327;SDS011;4201;48.754;8.864;2023-04-24T14:45:12;4.20;;;2.20;;
8327;SDS011;4201;48.754;8.864;2023-04-24T14:47:40;4.30;;;2.70;;
8327;SDS011;4201;48.754;8.864;2023-04-24T14:50:06;5.47;;;2.70;;
8327;SDS011;4201;48.754;8.864;2023-04-24T14:52:33;4.03;;;2.67;;
8327;SDS011;4201;48.754;8.864;2023-04-24T14:55:00;6.13;;;2.73;;
8327;SDS011;4201;48.754;8.864;2023-04-24T14:57:26;6.87;;;2.97;;
8327;SDS011;4201;48.754;8.864;2023-04-24T14:59:52;4.37;;;2.10;;
8327;SDS011;4201;48.754;8.864;2023-04-24T15:02:18;4.60;;;2.53;;
8327;SDS011;4201;48.754;8.864;2023-04-24T15:04:46;4.50;;;2.17;;
8327;SDS011;4201;48.754;8.864;2023-04-24T15:07:12;4.07;;;2.50;;
8327;SDS011;4201;48.754;8.864;2023-04-24T15:09:38;4.07;;;2.40;;
8327;SDS011;4201;48.754;8.864;2023-04-24T15:12:05;4.70;;;2.83;;